createdAt,value
2023-05-12T00:03:58.473Z,100162.13
2023-05-12T00:09:00.267Z,100166.53
2023-05-12T00:14:02.158Z,100170.28
2023-05-12T00:19:03.878Z,100167.38
2023-05-12T00:24:06.170Z,100162.56
2023-05-12T00:29:07.792Z,100165.66
2023-05-12T00:34:09.362Z,100164.44
2023-05-12T00:39:11.679Z,100162.72
2023-05-12T00:44:13.439Z,100174.72
2023-05-12T00:49:15.260Z,100161.34
2023-05-12T00:54:17.189Z,100172.50
2023-05-12T00:59:18.857Z,100164.19
2023-05-12T01:04:20.475Z,100169.53
2023-05-12T01:09:22.597Z,100169.31
2023-05-12T01:14:24.192Z,100176.41
2023-05-12T01:19:49.387Z,100163.75
2023-05-12T01:24:51.109Z,100174.97
2023-05-12T01:29:53.021Z,100167.22
2023-05-12T01:34:54.621Z,100170.91
2023-05-12T01:39:57.047Z,100167.72
2023-05-12T01:44:58.746Z,100177.06
2023-05-12T01:50:01.386Z,100177.44
2023-05-12T01:55:03.042Z,100174.84
2023-05-12T02:00:12.700Z,100180.91
2023-05-12T02:05:17.452Z,100183.13
2023-05-12T02:10:22.277Z,100182.50
2023-05-12T02:15:24.542Z,100184.28
2023-05-12T02:20:27.436Z,100181.84
2023-05-12T02:25:29.078Z,100184.75
2023-05-12T02:30:30.723Z,100196.94
2023-05-12T02:35:32.701Z,100193.63
2023-05-12T02:40:34.409Z,100194.38
2023-05-12T02:45:36.239Z,100192.13
2023-05-12T02:50:37.866Z,100189.72
2023-05-12T02:55:39.622Z,100181.78
2023-05-12T03:00:41.268Z,100190.09
2023-05-12T03:05:43.168Z,100182.91
2023-05-12T03:10:45.260Z,100192.97
2023-05-12T03:15:46.800Z,100191.19
2023-05-12T03:20:48.413Z,100186.44
2023-05-12T03:25:50.063Z,100187.13
2023-05-12T03:30:51.716Z,100193.88
2023-05-12T03:35:53.354Z,100190.16
2023-05-12T03:41:07.470Z,100191.66
2023-05-12T03:46:10.273Z,100201.81
2023-05-12T03:51:11.990Z,100197.53
2023-05-12T03:56:15.532Z,100197.41
2023-05-12T04:01:17.273Z,100204.22
2023-05-12T04:06:18.906Z,100209.06
2023-05-12T04:11:20.484Z,100199.22
2023-05-12T04:16:22.642Z,100204.31
2023-05-12T04:21:25.523Z,100208.88
2023-05-12T04:26:27.267Z,100208.97
2023-05-12T04:31:28.955Z,100213.09
2023-05-12T04:36:32.076Z,100220.63
2023-05-12T04:41:34.090Z,100212.03
2023-05-12T04:46:36.011Z,100225.34
2023-05-12T04:51:42.375Z,100226.19
2023-05-12T04:56:44.199Z,100224.59
2023-05-12T05:01:46.738Z,100227.19
2023-05-12T05:06:49.334Z,100222.41
2023-05-12T05:11:51.150Z,100222.56
2023-05-12T05:16:53.982Z,100232.06
2023-05-12T05:21:55.849Z,100235.63
2023-05-12T05:26:57.508Z,100234.19
2023-05-12T05:31:59.270Z,100238.56
2023-05-12T05:37:01.032Z,100246.38
2023-05-12T05:42:02.635Z,100240.03
2023-05-12T05:47:05.526Z,100238.84
2023-05-12T05:52:07.199Z,100242.31
2023-05-12T05:57:09.241Z,100246.56
2023-05-12T06:02:11.580Z,100257.09
2023-05-12T06:07:13.335Z,100257.47
2023-05-12T06:12:15.049Z,100257.88
2023-05-12T06:17:17.131Z,100266.78
2023-05-12T06:22:18.714Z,100270.91
2023-05-12T06:27:20.437Z,100261.66
2023-05-12T06:32:22.125Z,100274.44
2023-05-12T06:37:23.723Z,100276.91
2023-05-12T06:42:25.317Z,100271.09
2023-05-12T06:47:27.070Z,100274.69
2023-05-12T06:52:32.168Z,100272.50
2023-05-12T06:57:33.723Z,100273.03
2023-05-12T07:02:35.489Z,100276.78
2023-05-12T07:07:37.157Z,100272.22
2023-05-12T07:12:39.319Z,100274.53
2023-05-12T07:17:41.306Z,100266.00
2023-05-12T07:22:42.986Z,100263.72
2023-05-12T07:27:44.875Z,100266.03
2023-05-12T07:32:46.922Z,100270.41
2023-05-12T07:37:48.492Z,100258.50
2023-05-12T07:42:50.017Z,100259.13
2023-05-12T07:47:51.810Z,100264.19
2023-05-12T07:52:53.957Z,100271.03
2023-05-12T07:57:55.563Z,100273.19
2023-05-12T08:02:57.348Z,100265.63
2023-05-12T08:07:59.036Z,100261.25
2023-05-12T08:13:00.640Z,100260.38
2023-05-12T08:18:02.231Z,100259.72
2023-05-12T08:23:03.764Z,100257.28
2023-05-12T08:28:05.386Z,100260.41
2023-05-12T08:33:07.221Z,100258.50
2023-05-12T08:38:08.907Z,100264.97
2023-05-12T08:43:23.318Z,100260.56
2023-05-12T08:48:28.194Z,100264.31
2023-05-12T08:53:29.948Z,100272.91
2023-05-12T08:58:40.913Z,100278.97
2023-05-12T09:03:44.274Z,100270.59
2023-05-12T09:08:45.863Z,100274.53
2023-05-12T09:14:09.882Z,100271.22
2023-05-12T09:19:11.590Z,100268.13
2023-05-12T09:24:13.322Z,100275.59
2023-05-12T09:29:24.035Z,100280.16
2023-05-12T09:34:36.988Z,100282.25
2023-05-12T09:39:38.568Z,100273.06
2023-05-12T09:44:41.243Z,100275.91
2023-05-12T09:49:46.423Z,100272.53
2023-05-12T09:54:48.428Z,100272.44
2023-05-12T09:59:50.007Z,100272.72
2023-05-12T10:04:58.517Z,100276.59
2023-05-12T10:10:04.285Z,100261.53
2023-05-12T10:15:07.071Z,100267.63
2023-05-12T10:20:09.884Z,100263.66
2023-05-12T10:25:12.216Z,100256.09
2023-05-12T10:30:14.335Z,100261.03
2023-05-12T10:35:16.506Z,100256.88
2023-05-12T10:40:25.510Z,100254.03
2023-05-12T10:45:27.844Z,100262.81
2023-05-12T10:50:29.413Z,100268.88
2023-05-12T10:55:36.582Z,100252.94
2023-05-12T11:00:47.843Z,100257.69
2023-05-12T11:06:07.228Z,100260.50
2023-05-12T11:11:09.282Z,100257.72
2023-05-12T11:16:12.664Z,100263.59
2023-05-12T11:21:14.669Z,100262.34
2023-05-12T11:26:19.283Z,100257.94
2023-05-12T11:31:21.946Z,100263.03
2023-05-12T11:36:23.760Z,100260.56
2023-05-12T11:41:26.324Z,100261.84
2023-05-12T11:46:29.019Z,100263.97
2023-05-12T11:51:32.073Z,100275.44
2023-05-12T11:56:33.892Z,100267.38
2023-05-12T12:01:44.580Z,100267.09
2023-05-12T12:06:46.402Z,100270.16
2023-05-12T12:11:47.964Z,100275.25
2023-05-12T12:16:49.544Z,100282.00
2023-05-12T12:21:51.134Z,100287.44
2023-05-12T12:26:52.689Z,100289.47
2023-05-12T12:31:54.264Z,100291.66
2023-05-12T12:36:55.891Z,100288.84
2023-05-12T12:41:57.546Z,100287.00
2023-05-12T12:46:59.693Z,100291.47
2023-05-12T12:52:02.013Z,100282.06
2023-05-12T12:57:04.590Z,100289.75
2023-05-12T13:02:06.649Z,100289.38
2023-05-12T13:07:08.740Z,100279.22
2023-05-12T13:12:10.349Z,100284.94
2023-05-12T13:17:12.106Z,100278.88
2023-05-12T13:22:13.700Z,100283.19
2023-05-12T13:27:15.239Z,100279.25
2023-05-12T13:32:17.156Z,100285.78
2023-05-12T13:37:18.798Z,100293.03
2023-05-12T13:42:22.352Z,100274.22
2023-05-12T13:47:24.273Z,100274.84
2023-05-12T13:52:25.917Z,100270.00
2023-05-12T13:57:27.493Z,100276.00
2023-05-12T14:02:29.038Z,100272.94
2023-05-12T14:07:30.957Z,100267.81
2023-05-12T14:12:32.558Z,100272.72
2023-05-12T14:17:34.130Z,100273.38
2023-05-12T14:22:35.854Z,100284.19
2023-05-12T14:27:37.630Z,100303.22
2023-05-12T14:32:39.215Z,100316.19
2023-05-12T14:37:40.885Z,100300.09
2023-05-12T14:42:42.554Z,100286.25
2023-05-12T14:47:44.470Z,100299.41
2023-05-12T14:52:46.382Z,100292.72
2023-05-12T14:57:49.437Z,100289.72
2023-05-12T15:02:51.100Z,100285.94
2023-05-12T15:07:52.760Z,100276.97
2023-05-12T15:12:54.302Z,100270.53
2023-05-12T15:17:55.842Z,100275.72
2023-05-12T15:22:57.439Z,100279.50
2023-05-12T15:27:59.030Z,100269.28
2023-05-12T15:33:03.749Z,100268.25
2023-05-12T15:38:06.572Z,100269.47
2023-05-12T15:43:08.462Z,100272.84
2023-05-12T15:48:10.697Z,100269.25
2023-05-12T15:53:12.625Z,100268.78
2023-05-12T15:58:15.298Z,100279.13
2023-05-12T16:03:16.998Z,100279.84
2023-05-12T16:08:18.879Z,100281.81
2023-05-12T16:13:20.456Z,100282.25
2023-05-12T16:18:22.048Z,100276.16
2023-05-12T16:23:26.776Z,100274.34
2023-05-12T16:28:28.402Z,100264.72
2023-05-12T16:33:29.952Z,100266.78
2023-05-12T16:38:32.366Z,100263.63
2023-05-12T16:43:34.004Z,100271.19
2023-05-12T16:48:36.234Z,100298.56
2023-05-12T16:53:37.879Z,100307.59
2023-05-12T16:58:40.623Z,100314.97
2023-05-12T17:03:42.705Z,100324.34
2023-05-12T17:08:44.399Z,100323.06
2023-05-12T17:13:45.995Z,100339.53
2023-05-12T17:23:52.856Z,100342.78
2023-05-12T17:28:54.464Z,100342.78
2023-05-12T17:33:56.100Z,100342.78
2023-05-12T17:38:57.770Z,100346.28
2023-05-12T17:43:59.401Z,100344.44
2023-05-12T17:49:01.152Z,100353.16
2023-05-12T17:54:03.978Z,100348.53
2023-05-12T17:59:05.617Z,100352.69
2023-05-12T18:04:07.195Z,100352.94
2023-05-12T18:09:08.773Z,100343.91
2023-05-12T18:14:10.798Z,100348.69
2023-05-12T18:19:12.497Z,100356.81
2023-05-12T18:24:14.212Z,100349.03
2023-05-12T18:29:15.837Z,100347.34
2023-05-12T18:34:17.543Z,100350.66
2023-05-12T18:39:19.304Z,100357.09
2023-05-12T18:44:20.895Z,100362.50
2023-05-12T18:49:22.674Z,100368.78
2023-05-12T18:54:24.278Z,100378.78
2023-05-12T18:59:26.090Z,100373.25
2023-05-12T19:04:27.703Z,100374.94
2023-05-12T19:09:29.305Z,100382.34
2023-05-12T19:14:31.044Z,100394.34
2023-05-12T19:19:33.543Z,100394.69
2023-05-12T19:24:35.359Z,100404.44
2023-05-12T19:29:37.689Z,100410.38
2023-05-12T19:34:39.327Z,100423.41
2023-05-12T19:39:40.899Z,100422.13
2023-05-12T19:44:42.518Z,100423.97
2023-05-12T19:49:44.260Z,100430.50
2023-05-12T19:54:46.223Z,100429.41
2023-05-12T19:59:49.547Z,100435.84
2023-05-12T20:04:51.140Z,100442.66
2023-05-12T20:09:52.999Z,100438.78
2023-05-12T20:14:54.617Z,100452.94
2023-05-12T20:19:57.015Z,100449.13
2023-05-12T20:25:04.361Z,100451.66
2023-05-12T20:30:07.115Z,100449.53
2023-05-12T20:35:09.174Z,100438.25
2023-05-12T20:40:11.048Z,100447.00
2023-05-12T20:45:13.488Z,100444.56
2023-05-12T20:50:15.195Z,100452.53
2023-05-12T20:55:16.781Z,100456.06
2023-05-12T21:00:18.621Z,100465.19
2023-05-12T21:05:21.147Z,100457.56
2023-05-12T21:10:23.665Z,100465.38
2023-05-12T21:15:26.763Z,100472.38
2023-05-12T21:20:28.367Z,100474.06
2023-05-12T21:25:30.007Z,100473.66
2023-05-12T21:30:31.630Z,100474.25
2023-05-12T21:35:33.234Z,100492.22
2023-05-12T21:40:34.935Z,100492.81
2023-05-12T21:45:36.547Z,100479.84
2023-05-12T21:50:38.319Z,100488.03
2023-05-12T21:55:40.731Z,100500.84
2023-05-12T22:00:42.304Z,100500.69
2023-05-12T22:05:44.837Z,100512.47
2023-05-12T22:10:46.881Z,100511.31
2023-05-12T22:15:48.477Z,100508.28
2023-05-12T22:20:50.099Z,100497.81
2023-05-12T22:25:52.066Z,100514.06
2023-05-12T22:30:53.685Z,100519.28
2023-05-12T22:35:58.510Z,100518.91
2023-05-12T22:41:00.164Z,100527.06
2023-05-12T22:46:01.722Z,100523.84
2023-05-12T22:51:03.376Z,100531.78
2023-05-12T22:56:05.279Z,100530.91
2023-05-12T23:01:06.989Z,100535.59
2023-05-12T23:06:08.616Z,100548.13
2023-05-12T23:11:11.790Z,100539.53
2023-05-12T23:16:13.433Z,100543.56
2023-05-12T23:21:15.242Z,100542.06
2023-05-12T23:26:16.820Z,100541.88
2023-05-12T23:31:18.485Z,100545.44
2023-05-12T23:36:20.342Z,100537.03
2023-05-12T23:41:22.174Z,100540.09
2023-05-12T23:46:23.829Z,100549.66
2023-05-12T23:51:25.885Z,100546.44
2023-05-12T23:56:27.515Z,100538.03
